createdAt,value
2017-12-26T09:58:55.204Z,13.68
2017-12-26T10:00:56.139Z,13.36
2017-12-26T10:01:56.628Z,13.22
2017-12-26T10:02:57.153Z,13.10
2017-12-26T10:04:58.048Z,12.92
2017-12-26T10:06:58.994Z,12.83
2017-12-26T10:12:01.343Z,12.85
2017-12-26T10:14:02.300Z,12.95
2017-12-26T10:16:03.248Z,13.07
2017-12-26T10:17:03.718Z,13.15
2017-12-26T10:18:04.242Z,13.21
2017-12-26T10:19:04.648Z,13.28
2017-12-26T10:20:05.142Z,13.36
2017-12-26T10:21:05.607Z,13.43
2017-12-26T10:23:06.690Z,13.56
2017-12-26T10:24:07.022Z,13.62
2017-12-26T10:25:07.497Z,13.70
2017-12-26T10:26:07.970Z,13.77
2017-12-26T10:27:08.444Z,13.83
2017-12-26T10:30:09.846Z,14.02
2017-12-26T10:31:10.334Z,14.09
2017-12-26T10:32:10.807Z,14.15
2017-12-26T10:34:11.752Z,14.26
2017-12-26T10:35:12.214Z,14.33
2017-12-26T10:36:12.701Z,14.39
2017-12-26T10:37:13.171Z,14.44
2017-12-26T10:38:13.649Z,14.49
2017-12-26T10:39:14.120Z,14.54
2017-12-26T10:40:14.594Z,14.60
2017-12-26T10:42:15.542Z,14.71
2017-12-26T10:43:16.017Z,14.77
2017-12-26T10:44:16.493Z,14.82
2017-12-26T10:45:16.966Z,14.85
2017-12-26T10:46:17.424Z,14.91
2017-12-26T10:47:17.912Z,14.95
2017-12-26T10:48:18.390Z,14.99
2017-12-26T10:49:18.859Z,15.02
2017-12-26T10:50:19.338Z,15.06
2017-12-26T10:51:19.810Z,15.10
2017-12-26T10:52:20.273Z,15.12
2017-12-26T10:54:21.234Z,15.18
2017-12-26T10:56:22.184Z,15.24
2017-12-26T10:57:22.666Z,15.27
2017-12-26T10:59:23.660Z,15.32
2017-12-26T11:00:24.085Z,15.34
2017-12-26T11:01:24.559Z,15.38
2017-12-26T11:02:25.036Z,15.40
2017-12-26T11:03:25.511Z,15.42
2017-12-26T11:04:26.024Z,15.44
2017-12-26T11:05:26.447Z,15.45
2017-12-26T11:06:26.936Z,15.48
2017-12-26T11:07:27.412Z,15.49
2017-12-26T11:08:27.888Z,15.51
2017-12-26T11:10:28.840Z,15.56
2017-12-26T11:11:29.318Z,15.59
2017-12-26T11:12:29.779Z,15.60
2017-12-26T11:13:30.273Z,15.63
2017-12-26T11:14:30.741Z,15.65
2017-12-26T11:15:31.222Z,15.69
2017-12-26T11:16:31.682Z,15.71
2017-12-26T11:18:32.648Z,15.76
2017-12-26T11:19:33.175Z,15.78
2017-12-26T11:20:33.600Z,15.80
2017-12-26T11:21:34.063Z,15.83
2017-12-26T11:22:34.589Z,15.85
2017-12-26T11:23:35.029Z,15.88
2017-12-26T11:24:35.495Z,15.89
2017-12-26T11:25:35.968Z,15.93
2017-12-26T11:26:36.444Z,15.95
2017-12-26T11:27:36.923Z,15.96
2017-12-26T11:28:37.411Z,15.99
2017-12-26T11:29:49.764Z,15.99
2017-12-26T11:30:38.365Z,15.97
2017-12-26T11:32:39.519Z,15.87
2017-12-26T11:33:39.796Z,15.81
2017-12-26T11:34:40.258Z,15.72
2017-12-26T11:35:40.735Z,15.60
2017-12-26T11:36:41.211Z,15.48
2017-12-26T11:38:42.178Z,15.18
2017-12-26T11:39:42.690Z,15.04
2017-12-26T11:40:43.129Z,14.88
2017-12-26T11:41:43.606Z,14.73
2017-12-26T11:42:44.084Z,14.56
2017-12-26T11:44:45.032Z,14.23
2017-12-26T11:45:45.506Z,14.06
2017-12-26T11:46:45.981Z,13.90
2017-12-26T11:48:46.931Z,13.58
2017-12-26T11:49:47.454Z,13.44
2017-12-26T11:51:48.339Z,13.21
2017-12-26T11:53:49.298Z,13.05
2017-12-26T11:54:49.772Z,13.00
2017-12-26T11:55:50.246Z,12.95
2017-12-26T11:56:50.717Z,12.92
2017-12-26T11:57:51.189Z,12.92
2017-12-26T11:59:52.135Z,12.97
2017-12-26T12:00:52.606Z,13.00
2017-12-26T12:01:53.066Z,13.03
2017-12-26T12:02:53.554Z,13.09
2017-12-26T12:04:54.547Z,13.19
2017-12-26T12:05:54.954Z,13.25
2017-12-26T12:06:55.442Z,13.31
2017-12-26T12:07:55.913Z,13.38
2017-12-26T12:08:56.386Z,13.45
2017-12-26T12:10:57.330Z,13.58
2017-12-26T12:11:57.804Z,13.64
2017-12-26T12:12:58.262Z,13.71
2017-12-26T12:15:59.744Z,13.91
2017-12-26T12:17:00.166Z,13.99
2017-12-26T12:18:00.639Z,14.05
2017-12-26T12:19:01.114Z,14.11
2017-12-26T12:20:01.573Z,14.17
2017-12-26T12:23:03.006Z,14.38
2017-12-26T12:24:03.479Z,14.44
2017-12-26T12:25:03.940Z,14.50
2017-12-26T12:26:04.428Z,14.54
2017-12-26T12:27:04.901Z,14.59
2017-12-26T12:28:05.373Z,14.65
2017-12-26T12:29:05.848Z,14.71
2017-12-26T12:30:06.321Z,14.76
2017-12-26T12:31:06.834Z,14.82
2017-12-26T12:32:07.273Z,14.86
2017-12-26T12:33:07.744Z,14.90
2017-12-26T12:34:08.204Z,14.95
2017-12-26T12:35:08.690Z,14.99
2017-12-26T12:36:09.167Z,15.03
2017-12-26T12:38:10.114Z,15.11
2017-12-26T12:39:10.590Z,15.15
2017-12-26T12:40:11.063Z,15.19
2017-12-26T12:41:11.578Z,15.24
2017-12-26T12:42:12.014Z,15.29
2017-12-26T12:43:12.476Z,15.31
2017-12-26T12:44:12.968Z,15.34
2017-12-26T12:47:14.381Z,15.44
2017-12-26T12:50:15.816Z,15.56
2017-12-26T12:51:16.494Z,15.61
2017-12-26T12:52:16.767Z,15.64
2017-12-26T12:53:17.245Z,15.67
2017-12-26T12:54:17.704Z,15.70
2017-12-26T12:57:19.144Z,15.76
2017-12-26T12:58:19.624Z,15.77
2017-12-26T13:00:20.575Z,15.81
2017-12-26T13:02:21.511Z,15.83
2017-12-26T13:03:21.999Z,15.84
2017-12-26T13:04:22.476Z,15.85
2017-12-26T13:05:22.954Z,15.86
2017-12-26T13:06:23.428Z,15.86
2017-12-26T13:07:23.906Z,15.87
2017-12-26T13:09:24.844Z,15.88
2017-12-26T13:10:25.335Z,15.88
2017-12-26T13:11:25.809Z,15.88
2017-12-26T13:12:26.285Z,15.87
2017-12-26T13:13:26.761Z,15.88
2017-12-26T13:14:27.224Z,15.87
2017-12-26T13:15:27.714Z,15.87
2017-12-26T13:16:28.240Z,15.85
2017-12-26T13:17:28.653Z,15.83
2017-12-26T13:19:29.618Z,15.74
2017-12-26T13:22:31.052Z,15.48
2017-12-26T13:23:31.525Z,15.34
2017-12-26T13:24:32.000Z,15.19
2017-12-26T13:25:32.477Z,15.03
2017-12-26T13:26:32.952Z,14.86
2017-12-26T13:27:33.426Z,14.69
2017-12-26T13:28:33.902Z,14.50
2017-12-26T13:29:34.377Z,14.32
2017-12-26T13:30:34.853Z,14.13
2017-12-26T13:32:35.788Z,13.76
2017-12-26T13:33:36.276Z,13.57
2017-12-26T13:34:36.754Z,13.39
2017-12-26T13:35:37.223Z,13.22
2017-12-26T13:36:37.699Z,13.06
2017-12-26T13:37:38.223Z,12.93
2017-12-26T13:38:38.646Z,12.82
2017-12-26T13:39:39.121Z,12.72
2017-12-26T13:40:39.592Z,12.64
2017-12-26T13:41:40.050Z,12.58
2017-12-26T13:42:51.855Z,12.55
2017-12-26T13:43:41.012Z,12.53
2017-12-26T13:44:41.480Z,12.52
2017-12-26T13:45:41.956Z,12.52
2017-12-26T13:46:42.426Z,12.54
2017-12-26T13:47:54.887Z,12.57
2017-12-26T13:48:43.370Z,12.61
2017-12-26T13:49:43.839Z,12.65
2017-12-26T13:50:44.312Z,12.71
2017-12-26T13:51:44.783Z,12.78
2017-12-26T13:52:45.242Z,12.84
2017-12-26T13:53:45.731Z,12.89
2017-12-26T13:55:46.657Z,13.04
2017-12-26T13:56:47.143Z,13.12
2017-12-26T13:57:47.616Z,13.18
2017-12-26T13:58:48.083Z,13.26
2017-12-26T13:59:48.559Z,13.31
2017-12-26T14:00:49.031Z,13.37
2017-12-26T14:02:50.024Z,13.49
2017-12-26T14:03:50.452Z,13.55
2017-12-26T14:04:50.919Z,13.61
2017-12-26T14:05:51.392Z,13.68
2017-12-26T14:06:51.850Z,13.74
2017-12-26T14:08:52.810Z,13.85
2017-12-26T14:09:53.282Z,13.89
2017-12-26T14:10:53.754Z,13.93
2017-12-26T14:11:54.226Z,13.98
2017-12-26T14:13:06.944Z,14.04
2017-12-26T14:13:55.172Z,14.08
2017-12-26T14:15:56.120Z,14.19
2017-12-26T14:16:56.592Z,14.24
2017-12-26T14:18:57.595Z,14.32
2017-12-26T14:19:58.014Z,14.34
2017-12-26T14:20:58.486Z,14.38
2017-12-26T14:21:58.961Z,14.41
2017-12-26T14:23:59.894Z,14.48
2017-12-26T14:25:00.379Z,14.50
2017-12-26T14:26:00.854Z,14.52
2017-12-26T14:27:01.328Z,14.53
2017-12-26T14:28:01.801Z,14.55
2017-12-26T14:30:02.750Z,14.57
2017-12-26T14:31:03.209Z,14.60
2017-12-26T14:32:03.697Z,14.61
2017-12-26T14:33:04.171Z,14.63
2017-12-26T14:34:04.650Z,14.65
2017-12-26T14:35:05.119Z,14.67
2017-12-26T14:36:05.593Z,14.68
2017-12-26T14:37:06.069Z,14.69
2017-12-26T14:38:06.545Z,14.72
2017-12-26T14:39:07.018Z,14.73
2017-12-26T14:40:07.492Z,14.75
2017-12-26T14:41:07.956Z,14.76
2017-12-26T14:42:08.442Z,14.77
2017-12-26T14:43:08.921Z,14.77
2017-12-26T14:44:09.444Z,14.76
2017-12-26T14:45:09.852Z,14.76
2017-12-26T14:46:10.341Z,14.75
2017-12-26T14:47:10.814Z,14.75
2017-12-26T14:48:11.290Z,14.76
2017-12-26T14:49:11.750Z,14.75
2017-12-26T14:51:12.713Z,14.75
2017-12-26T14:52:13.190Z,14.75
2017-12-26T14:53:13.663Z,14.75
2017-12-26T14:54:14.190Z,14.73
2017-12-26T14:55:14.614Z,14.74
2017-12-26T14:56:15.087Z,14.75
2017-12-26T14:57:15.558Z,14.73
2017-12-26T14:58:16.039Z,14.73
2017-12-26T14:59:16.512Z,14.73
2017-12-26T15:00:16.988Z,14.73
2017-12-26T15:01:17.463Z,14.72
2017-12-26T15:02:17.940Z,14.70
2017-12-26T15:03:18.414Z,14.71
2017-12-26T15:04:18.925Z,14.71
2017-12-26T15:05:19.363Z,14.70
2017-12-26T15:06:19.839Z,14.69
2017-12-26T15:08:20.789Z,14.67
2017-12-26T15:09:21.317Z,14.65
2017-12-26T15:10:21.739Z,14.64
2017-12-26T15:11:22.212Z,14.64
2017-12-26T15:12:22.690Z,14.62
2017-12-26T15:13:23.165Z,14.61
2017-12-26T15:14:23.626Z,14.61
2017-12-26T15:15:24.115Z,14.59
2017-12-26T15:16:24.590Z,14.57
2017-12-26T15:17:25.052Z,14.56
2017-12-26T15:18:25.539Z,14.54
2017-12-26T15:19:26.066Z,14.53
2017-12-26T15:21:26.951Z,14.51
2017-12-26T15:22:27.443Z,14.49
2017-12-26T15:23:27.915Z,14.48
2017-12-26T15:24:40.028Z,14.46
2017-12-26T15:25:28.853Z,14.45
2017-12-26T15:27:29.814Z,14.46
2017-12-26T15:28:30.289Z,14.44
2017-12-26T15:30:31.241Z,14.41
2017-12-26T15:31:31.714Z,14.41
2017-12-26T15:32:32.188Z,14.40
2017-12-26T15:34:33.146Z,14.37
2017-12-26T15:35:33.619Z,14.35
2017-12-26T15:36:34.078Z,14.35
2017-12-26T15:37:34.566Z,14.34
2017-12-26T15:38:35.027Z,14.33
2017-12-26T15:39:35.516Z,14.31
2017-12-26T15:40:36.042Z,14.30
2017-12-26T15:41:36.467Z,14.27
2017-12-26T15:42:36.927Z,14.27
2017-12-26T15:43:37.417Z,14.25
2017-12-26T15:44:37.892Z,14.24
2017-12-26T15:46:38.842Z,14.22
2017-12-26T15:48:39.791Z,14.19
2017-12-26T15:49:40.266Z,14.17
2017-12-26T15:50:40.727Z,14.15
2017-12-26T15:51:41.213Z,14.13
2017-12-26T15:52:41.697Z,14.11
2017-12-26T15:53:42.169Z,14.09
2017-12-26T15:54:42.630Z,14.09
2017-12-26T15:55:43.151Z,14.08
2017-12-26T15:56:43.578Z,14.06
2017-12-26T15:57:44.053Z,14.06
2017-12-26T15:58:44.526Z,14.04
2017-12-26T15:59:45.002Z,14.03
2017-12-26T16:00:45.475Z,14.02
2017-12-26T16:01:45.950Z,14.01
2017-12-26T16:02:46.427Z,13.98
2017-12-26T16:03:46.899Z,13.98
2017-12-26T16:04:47.376Z,13.94
2017-12-26T16:05:47.851Z,13.93
2017-12-26T16:06:48.325Z,13.92
2017-12-26T16:07:48.798Z,13.90
2017-12-26T16:08:49.275Z,13.90
2017-12-26T16:09:49.750Z,13.89
2017-12-26T16:10:50.224Z,13.88
2017-12-26T16:11:50.698Z,13.87
2017-12-26T16:12:51.173Z,13.86
2017-12-26T16:13:51.650Z,13.84
2017-12-26T16:14:52.127Z,13.83
2017-12-26T16:15:52.596Z,13.81
2017-12-26T16:16:53.071Z,13.81
2017-12-26T16:17:53.546Z,13.79
2017-12-26T16:18:54.022Z,13.76
2017-12-26T16:19:54.512Z,13.75
2017-12-26T16:20:55.021Z,13.76
2017-12-26T16:21:55.447Z,13.74
2017-12-26T16:22:55.919Z,13.74
2017-12-26T16:23:56.396Z,13.73
2017-12-26T16:24:56.868Z,13.72
2017-12-26T16:25:57.344Z,13.72
2017-12-26T16:26:57.819Z,13.70
2017-12-26T16:27:58.295Z,13.70
2017-12-26T16:28:58.766Z,13.67
2017-12-26T16:29:59.241Z,13.65
2017-12-26T16:30:59.766Z,13.63
2017-12-26T16:32:00.193Z,13.62
2017-12-26T16:33:00.666Z,13.61
2017-12-26T16:34:01.139Z,13.59
2017-12-26T16:35:01.616Z,13.57
2017-12-26T16:36:02.087Z,13.55
2017-12-26T16:37:02.562Z,13.54
2017-12-26T16:38:03.037Z,13.53
2017-12-26T16:39:03.514Z,13.50
2017-12-26T16:40:03.984Z,13.49
2017-12-26T16:41:04.460Z,13.48
2017-12-26T16:42:04.936Z,13.47
2017-12-26T16:43:05.409Z,13.44
2017-12-26T16:44:05.882Z,13.42
2017-12-26T16:45:06.357Z,13.41
2017-12-26T16:46:06.845Z,13.39
2017-12-26T16:47:07.322Z,13.38
2017-12-26T16:48:07.785Z,13.37
2017-12-26T16:49:08.269Z,13.35
2017-12-26T16:50:08.741Z,13.32
2017-12-26T16:51:09.216Z,13.30
2017-12-26T16:52:09.878Z,13.29
2017-12-26T16:54:10.638Z,13.26
2017-12-26T16:55:11.111Z,13.23
2017-12-26T16:56:11.635Z,13.23
2017-12-26T16:57:12.061Z,13.21
2017-12-26T16:58:12.534Z,13.19
2017-12-26T16:59:12.994Z,13.17
2017-12-26T17:00:13.484Z,13.16
2017-12-26T17:01:13.942Z,13.16
2017-12-26T17:02:14.432Z,13.14
2017-12-26T17:04:15.378Z,13.10
2017-12-26T17:08:17.260Z,13.05
2017-12-26T17:09:17.749Z,13.03
2017-12-26T17:10:18.221Z,13.02
2017-12-26T17:12:19.168Z,13.00
2017-12-26T17:14:20.116Z,12.95
2017-12-26T17:15:20.577Z,12.95
2017-12-26T17:16:21.066Z,12.94
2017-12-26T17:17:21.541Z,12.93
2017-12-26T17:18:22.015Z,12.91
2017-12-26T17:19:22.474Z,12.89
2017-12-26T17:20:22.960Z,12.89
2017-12-26T17:22:23.907Z,12.87
2017-12-26T17:23:24.381Z,12.85
2017-12-26T17:24:24.854Z,12.84
2017-12-26T17:25:25.328Z,12.83
2017-12-26T17:26:25.791Z,12.81
2017-12-26T17:27:26.277Z,12.80
2017-12-26T17:28:26.749Z,12.79
2017-12-26T17:29:27.223Z,12.77
2017-12-26T17:30:27.697Z,12.76
2017-12-26T17:31:28.170Z,12.75
2017-12-26T17:33:29.102Z,12.72
2017-12-26T17:34:29.589Z,12.72
2017-12-26T17:35:30.065Z,12.71
2017-12-26T17:36:30.535Z,12.69
2017-12-26T17:37:30.996Z,12.67
2017-12-26T17:38:31.484Z,12.65
2017-12-26T17:39:31.956Z,12.63
2017-12-26T17:40:32.431Z,12.62
2017-12-26T17:41:32.903Z,12.61
2017-12-26T17:42:33.378Z,12.59
2017-12-26T17:43:33.852Z,12.57
2017-12-26T17:44:34.311Z,12.56
2017-12-26T17:46:35.270Z,12.53
2017-12-26T17:47:35.742Z,12.52
2017-12-26T17:48:36.215Z,12.51
2017-12-26T17:49:36.689Z,12.50
2017-12-26T17:50:37.163Z,12.49
2017-12-26T17:51:37.622Z,12.48
2017-12-26T17:52:38.108Z,12.48
2017-12-26T17:53:38.583Z,12.45
2017-12-26T17:54:39.055Z,12.44
2017-12-26T17:55:39.516Z,12.43
2017-12-26T17:56:40.003Z,12.42
2017-12-26T17:58:40.952Z,12.39
2017-12-26T17:59:41.420Z,12.39
2017-12-26T18:00:41.893Z,12.38
2017-12-26T18:01:42.367Z,12.36
2017-12-26T18:02:42.826Z,12.35
2017-12-26T18:03:43.313Z,12.34
2017-12-26T18:04:43.786Z,12.32
2017-12-26T18:06:44.732Z,12.31
2017-12-26T18:07:45.208Z,12.30
2017-12-26T18:08:45.678Z,12.29
2017-12-26T18:09:46.138Z,12.29
2017-12-26T18:10:46.624Z,12.28
2017-12-26T18:11:47.097Z,12.27
2017-12-26T18:12:47.568Z,12.25
2017-12-26T18:13:48.029Z,12.23
2017-12-26T18:14:48.518Z,12.22
2017-12-26T18:15:48.988Z,12.21
2017-12-26T18:16:49.462Z,12.21
2017-12-26T18:17:49.933Z,12.20
2017-12-26T18:20:51.338Z,12.17
2017-12-26T18:21:51.824Z,12.14
2017-12-26T18:22:52.297Z,12.14
2017-12-26T18:23:52.773Z,12.11
2017-12-26T18:24:53.242Z,12.11
2017-12-26T18:25:53.715Z,12.10
2017-12-26T18:26:54.188Z,12.09
2017-12-26T18:27:54.650Z,12.07
2017-12-26T18:30:56.080Z,12.04
2017-12-26T18:31:56.541Z,12.03
2017-12-26T18:32:57.027Z,12.02
2017-12-26T18:34:57.970Z,11.98
2017-12-26T18:35:58.442Z,11.97
2017-12-26T18:36:58.915Z,11.96
2017-12-26T18:37:59.390Z,11.96
2017-12-26T18:38:59.848Z,11.96
2017-12-26T18:40:12.159Z,11.95
2017-12-26T18:41:00.807Z,11.93
2017-12-26T18:42:01.278Z,11.91
2017-12-26T18:43:01.750Z,11.90
2017-12-26T18:44:02.226Z,11.89
2017-12-26T18:45:02.694Z,11.89
2017-12-26T18:46:03.154Z,11.88
2017-12-26T18:47:03.639Z,11.85
2017-12-26T18:48:04.115Z,11.85
2017-12-26T18:49:04.585Z,11.84
2017-12-26T18:50:17.150Z,11.84
2017-12-26T18:53:06.477Z,11.82
2017-12-26T18:54:06.947Z,11.82
2017-12-26T18:55:07.470Z,11.80
2017-12-26T18:56:07.891Z,11.79
2017-12-26T18:57:08.351Z,11.79
2017-12-26T18:58:08.836Z,11.77
2017-12-26T18:59:09.308Z,11.78
2017-12-26T19:00:09.780Z,11.76
2017-12-26T19:01:10.253Z,11.75
2017-12-26T19:02:10.726Z,11.75
2017-12-26T19:03:11.198Z,11.74
2017-12-26T19:04:11.657Z,11.73
2017-12-26T19:05:12.140Z,11.72
2017-12-26T19:06:12.614Z,11.71
2017-12-26T19:07:13.086Z,11.70
2017-12-26T19:08:13.546Z,11.70
2017-12-26T19:09:14.046Z,11.70
2017-12-26T19:10:26.191Z,11.69
2017-12-26T19:11:14.973Z,11.68
2017-12-26T19:12:15.449Z,11.68
2017-12-26T19:14:16.391Z,11.67
2017-12-26T19:15:16.851Z,11.66
2017-12-26T19:16:17.335Z,11.64
2017-12-26T19:17:17.807Z,11.61
2017-12-26T19:18:18.279Z,11.61
2017-12-26T19:19:18.753Z,11.60
2017-12-26T19:21:19.695Z,11.58
2017-12-26T19:22:20.158Z,11.57
2017-12-26T19:23:20.640Z,11.57
2017-12-26T19:24:21.112Z,11.55
2017-12-26T19:25:21.584Z,11.55
2017-12-26T19:26:22.055Z,11.53
2017-12-26T19:27:22.527Z,11.54
2017-12-26T19:28:23.000Z,11.53
2017-12-26T19:29:23.464Z,11.54
2017-12-26T19:30:23.945Z,11.55
2017-12-26T19:32:24.888Z,11.54
2017-12-26T19:33:25.347Z,11.53
2017-12-26T19:34:25.833Z,11.52
2017-12-26T19:36:26.780Z,11.52
2017-12-26T19:37:27.246Z,11.51
2017-12-26T19:38:27.718Z,11.51
2017-12-26T19:39:28.191Z,11.49
2017-12-26T19:40:28.650Z,11.48
2017-12-26T19:41:29.168Z,11.46
2017-12-26T19:43:30.078Z,11.44
2017-12-26T19:44:30.553Z,11.42
2017-12-26T19:45:31.023Z,11.40
2017-12-26T19:46:31.545Z,11.39
2017-12-26T19:47:31.954Z,11.38
2017-12-26T19:48:32.437Z,11.37
2017-12-26T19:49:32.909Z,11.36
2017-12-26T19:50:33.380Z,11.36
2017-12-26T19:51:33.846Z,11.36
2017-12-26T19:52:34.324Z,11.35
2017-12-26T19:53:34.799Z,11.32
2017-12-26T19:54:35.268Z,11.32
2017-12-26T19:55:35.742Z,11.30
2017-12-26T19:56:36.215Z,11.28
2017-12-26T19:57:36.685Z,11.29
2017-12-26T19:58:37.143Z,11.27
2017-12-26T20:02:39.043Z,11.27
2017-12-26T20:03:39.516Z,11.27
2017-12-26T20:04:39.991Z,11.26
2017-12-26T20:05:40.444Z,11.25
2017-12-26T20:06:40.928Z,11.25
2017-12-26T20:07:53.243Z,11.24
2017-12-26T20:09:42.337Z,11.22
2017-12-26T20:11:43.289Z,11.21
2017-12-26T20:13:44.231Z,11.20
2017-12-26T20:14:44.704Z,11.18
2017-12-26T20:15:45.180Z,11.16
2017-12-26T20:16:45.632Z,11.15
2017-12-26T20:17:46.116Z,11.15
2017-12-26T20:18:46.606Z,11.15
2017-12-26T20:19:47.059Z,11.16
2017-12-26T20:20:47.534Z,11.16
2017-12-26T20:21:48.001Z,11.14
2017-12-26T20:22:48.474Z,11.13
2017-12-26T20:23:48.933Z,11.14
2017-12-26T20:25:49.888Z,11.12
2017-12-26T20:26:50.359Z,11.12
2017-12-26T20:27:50.818Z,11.11
2017-12-26T20:28:51.305Z,11.10
2017-12-26T20:29:51.775Z,11.10
2017-12-26T20:30:52.246Z,11.10
2017-12-26T20:31:52.720Z,11.10
2017-12-26T20:32:53.189Z,11.10
2017-12-26T20:33:53.659Z,11.10
2017-12-26T20:34:54.118Z,11.10
2017-12-26T20:35:54.605Z,11.09
2017-12-26T20:36:55.075Z,11.10
2017-12-26T20:37:55.545Z,11.09
2017-12-26T20:38:56.018Z,11.08
2017-12-26T20:39:56.491Z,11.08
2017-12-26T20:41:57.418Z,11.06
2017-12-26T20:42:57.902Z,11.05
2017-12-26T20:43:58.375Z,11.02
2017-12-26T20:44:58.847Z,11.01
2017-12-26T20:45:59.303Z,11.00
2017-12-26T20:46:59.787Z,11.00
2017-12-26T20:48:00.261Z,11.00
2017-12-26T20:49:00.732Z,10.98
2017-12-26T20:51:01.674Z,10.96
2017-12-26T20:52:02.145Z,10.95
2017-12-26T20:53:02.603Z,10.94
2017-12-26T20:54:03.087Z,10.93
2017-12-26T20:55:03.559Z,10.92
2017-12-26T20:56:04.032Z,10.90
2017-12-26T20:57:04.504Z,10.90
2017-12-26T20:58:04.972Z,10.89
2017-12-26T20:59:05.445Z,10.88
2017-12-26T21:00:05.900Z,10.87
2017-12-26T21:01:06.385Z,10.87
2017-12-26T21:02:06.857Z,10.85
2017-12-26T21:03:19.268Z,10.84
2017-12-26T21:04:07.787Z,10.84
2017-12-26T21:05:08.270Z,10.84
2017-12-26T21:07:09.212Z,10.81
2017-12-26T21:08:09.683Z,10.81
2017-12-26T21:11:11.083Z,10.78
2017-12-26T21:12:11.569Z,10.77
2017-12-26T21:13:12.040Z,10.75
2017-12-26T21:14:12.508Z,10.73
2017-12-26T21:17:13.923Z,10.74
2017-12-26T21:18:14.380Z,10.73
2017-12-26T21:19:14.864Z,10.71
2017-12-26T21:20:15.336Z,10.70
2017-12-26T21:21:15.806Z,10.69
2017-12-26T21:22:16.266Z,10.69
2017-12-26T21:23:16.791Z,10.68
2017-12-26T21:24:17.218Z,10.67
2017-12-26T21:25:17.688Z,10.66
2017-12-26T21:26:18.159Z,10.66
2017-12-26T21:27:18.630Z,10.64
2017-12-26T21:28:19.102Z,10.64
2017-12-26T21:29:19.560Z,10.63
2017-12-26T21:30:20.047Z,10.61
2017-12-26T21:32:20.985Z,10.62
2017-12-26T21:33:21.457Z,10.60
2017-12-26T21:34:21.925Z,10.58
2017-12-26T21:35:22.396Z,10.55
2017-12-26T21:36:22.853Z,10.56
2017-12-26T21:37:23.340Z,10.56
2017-12-26T21:38:23.812Z,10.55
2017-12-26T21:39:24.280Z,10.58
2017-12-26T21:40:24.739Z,10.58
2017-12-26T21:41:25.222Z,10.57
2017-12-26T21:42:25.691Z,10.55
2017-12-26T21:43:26.164Z,10.55
2017-12-26T21:44:26.632Z,10.54
2017-12-26T21:46:27.573Z,10.54
2017-12-26T21:47:28.032Z,10.53
2017-12-26T21:48:28.521Z,10.53
2017-12-26T21:49:28.987Z,10.51
2017-12-26T21:53:30.869Z,10.50
2017-12-26T21:54:31.326Z,10.49
2017-12-26T21:55:31.810Z,10.48
2017-12-26T21:56:32.279Z,10.46
2017-12-26T21:57:32.750Z,10.44
2017-12-26T21:58:33.210Z,10.44
2017-12-26T21:59:33.692Z,10.44
2017-12-26T22:00:34.163Z,10.44
2017-12-26T22:01:34.634Z,10.44
2017-12-26T22:02:35.102Z,10.44
2017-12-26T22:03:35.576Z,10.44
2017-12-26T22:04:36.045Z,10.44
2017-12-26T22:05:36.503Z,10.43
2017-12-26T22:06:36.986Z,10.43
2017-12-26T22:07:37.454Z,10.43
2017-12-26T22:08:37.927Z,10.43
2017-12-26T22:09:38.399Z,10.42
2017-12-26T22:10:38.866Z,10.41
2017-12-26T22:11:39.339Z,10.42
2017-12-26T22:12:39.794Z,10.43
2017-12-26T22:13:40.280Z,10.43
2017-12-26T22:14:40.749Z,10.42
2017-12-26T22:16:41.678Z,10.42
2017-12-26T22:17:42.162Z,10.40
2017-12-26T22:18:42.631Z,10.40
2017-12-26T22:21:44.043Z,10.38
2017-12-26T22:22:44.513Z,10.38
2017-12-26T22:23:44.971Z,10.37
2017-12-26T22:25:45.926Z,10.36
2017-12-26T22:26:46.395Z,10.35
2017-12-26T22:27:46.864Z,10.35
2017-12-26T22:28:47.336Z,10.36
2017-12-26T22:30:48.263Z,10.38
2017-12-26T22:32:49.218Z,10.41
2017-12-26T22:33:49.742Z,10.40
2017-12-26T22:34:50.145Z,10.39
2017-12-26T22:35:50.630Z,10.39
2017-12-26T22:36:51.098Z,10.38
2017-12-26T22:37:51.570Z,10.38
2017-12-26T22:39:52.510Z,10.34
2017-12-26T22:40:52.980Z,10.34
2017-12-26T22:41:53.438Z,10.34
2017-12-26T22:43:54.391Z,10.34
2017-12-26T22:44:54.861Z,10.33
2017-12-26T22:45:55.330Z,10.34
2017-12-26T22:46:55.802Z,10.34
2017-12-26T22:47:56.271Z,10.34
2017-12-26T22:48:56.730Z,10.33
2017-12-26T22:49:57.214Z,10.33
2017-12-26T22:50:57.685Z,10.33
2017-12-26T22:51:58.153Z,10.31
2017-12-26T22:52:58.611Z,10.30
2017-12-26T22:53:59.094Z,10.31
2017-12-26T22:54:59.596Z,10.31
2017-12-26T22:56:00.038Z,10.30
2017-12-26T22:57:00.506Z,10.32
2017-12-26T22:59:01.447Z,10.32
2017-12-26T23:00:01.903Z,10.32
2017-12-26T23:01:02.387Z,10.31
2017-12-26T23:02:02.857Z,10.32
2017-12-26T23:03:03.328Z,10.32
2017-12-26T23:05:04.268Z,10.34
2017-12-26T23:06:04.781Z,10.32
2017-12-26T23:07:05.194Z,10.32
2017-12-26T23:08:05.680Z,10.30
2017-12-26T23:09:06.148Z,10.29
2017-12-26T23:10:06.619Z,10.29
2017-12-26T23:11:07.079Z,10.28
2017-12-26T23:12:07.560Z,10.28
2017-12-26T23:13:08.029Z,10.28
2017-12-26T23:16:09.442Z,10.28
2017-12-26T23:17:09.913Z,10.27
2017-12-26T23:18:10.369Z,10.27
2017-12-26T23:19:10.851Z,10.26
2017-12-26T23:20:11.324Z,10.26
2017-12-26T23:21:11.794Z,10.25
2017-12-26T23:22:12.263Z,10.24
2017-12-26T23:23:12.734Z,10.23
2017-12-26T23:24:13.209Z,10.23
2017-12-26T23:25:13.660Z,10.24
2017-12-26T23:26:14.145Z,10.24
2017-12-26T23:27:14.615Z,10.24
2017-12-26T23:28:15.085Z,10.24
2017-12-26T23:29:15.558Z,10.23
2017-12-26T23:30:16.025Z,10.23
2017-12-26T23:31:16.494Z,10.22
2017-12-26T23:32:16.960Z,10.21
2017-12-26T23:34:17.905Z,10.19
2017-12-26T23:35:18.380Z,10.18
2017-12-26T23:36:18.831Z,10.17
2017-12-26T23:37:19.316Z,10.15
2017-12-26T23:39:20.258Z,10.13
2017-12-26T23:40:20.728Z,10.13
2017-12-26T23:41:21.199Z,10.12
2017-12-26T23:42:21.667Z,10.12
2017-12-26T23:43:22.123Z,10.12
2017-12-26T23:45:23.077Z,10.10
2017-12-26T23:46:23.548Z,10.12
2017-12-26T23:47:24.018Z,10.11
2017-12-26T23:48:24.488Z,10.09
2017-12-26T23:49:24.958Z,10.08
2017-12-26T23:50:25.420Z,10.06
2017-12-26T23:51:25.897Z,10.07
2017-12-26T23:52:26.369Z,10.05
2017-12-26T23:54:27.295Z,10.04
2017-12-26T23:55:27.779Z,10.03
2017-12-26T23:56:28.248Z,10.04
2017-12-26T23:57:28.719Z,10.04
2017-12-26T23:58:29.188Z,10.04
2017-12-26T23:59:29.657Z,10.04
